Time;durP1;ratioP1;P1;durP2;ratioP2;P2;SDS_P1;SDS_P2;PMS_P1;PMS_P2;Temp;Humidity;BMP_temperature;BMP_pressure;BME280_temperature;BME280_humidity;BME280_pressure;Samples;Min_cycle;Max_cycle;Signal;HPM_P1;HPM_P2
2022/06/04 00:00:58;;;;;;;;;;;;;;;14.04;72.07;102127.78;7380697;19;19955;-76
2022/06/04 00:03:28;;;;;;;;;;;;;;;14.12;71.21;102130.59;7380415;19;19925;-76
2022/06/04 00:05:59;;;;;;;;;;;;;;;14.00;71.76;102125.97;7382093;19;19929;-76
2022/06/04 00:08:31;;;;;;;;;;;;;;;14.08;71.62;102124.34;7381363;19;19915;-77
2022/06/04 00:16:26;;;;;;;;;;;;;;;13.87;71.85;102134.47;7388431;19;19955;-76
2022/06/04 00:18:56;;;;;;;;;;;;;;;13.83;71.72;102137.91;7387829;19;19990;-76
2022/06/04 00:21:26;;;;;;;;;;;;;;;13.78;71.55;102132.53;7387710;19;19914;-77
2022/06/04 00:23:58;;;;;;;;;;;;;;;13.76;71.93;102126.34;7386856;19;19919;-75
2022/06/04 00:26:28;;;;;;;;;;;;;;;13.77;71.62;102128.13;7386474;19;19927;-76
2022/06/04 00:28:57;;;;;;;;;;;;;;;13.77;72.09;102128.13;7387761;19;19935;-75
2022/06/04 00:31:27;;;;;;;;;;;;;;;13.72;73.18;102117.50;7387723;19;19973;-74
2022/06/04 00:33:56;;;;;;;;;;;;;;;13.69;75.64;102121.81;7387536;19;19922;-75
2022/06/04 00:36:26;;;;;;;;;;;;;;;13.61;78.79;102129.56;7387164;19;19929;-75
2022/06/04 00:38:58;;;;;;;;;;;;;;;13.68;80.41;102126.19;7386158;19;20299;-75
2022/06/04 00:41:31;;;;;;;;;;;;;;;13.65;81.94;102138.41;7388466;19;19919;-75
2022/06/04 00:44:07;;;;;;;;;;;;;;;13.59;83.04;102133.91;7386874;19;19944;-75
2022/06/04 00:46:51;;;;;;;;;;;;;;;13.57;83.25;102132.97;7388117;19;19922;-75
2022/06/04 00:49:21;;;;;;;;;;;;;;;13.56;83.83;102136.47;7387819;19;19945;-75
2022/06/04 00:51:51;;;;;;;;;;;;;;;13.50;84.55;102130.22;7387441;19;19919;-75
2022/06/04 00:54:24;;;;;;;;;;;;;;;13.49;84.38;102125.81;7387026;19;20337;-75
2022/06/04 00:56:58;;;;;;;;;;;;;;;13.52;85.33;102132.00;7386659;19;19918;-75
2022/06/04 00:59:34;;;;;;;;;;;;;;;13.48;86.41;102129.28;7388488;19;19922;-74
2022/06/04 01:02:11;;;;;;;;;;;;;;;13.41;86.65;102137.06;7385146;19;20373;-75
2022/06/04 01:04:51;;;;;;;;;;;;;;;13.41;87.59;102137.06;7386252;19;19956;-75
2022/06/04 01:07:24;;;;;;;;;;;;;;;13.39;87.76;102153.69;7385456;19;19915;-75
2022/06/04 01:10:04;;;;;;;;;;;;;;;13.36;87.87;102143.97;7383704;19;19922;-75
2022/06/04 01:12:39;;;;;;;;;;;;;;;13.31;89.03;102147.34;7383486;19;19968;-75
2022/06/04 01:15:12;;;;;;;;;;;;;;;13.25;89.82;102152.47;7386559;19;19919;-75
2022/06/04 01:17:49;;;;;;;;;;;;;;;13.26;90.33;102155.16;7387242;19;19926;-76
2022/06/04 01:20:23;;;;;;;;;;;;;;;13.23;91.32;102165.63;7385851;19;19998;-75
2022/06/04 01:23:06;;;;;;;;;;;;;;;13.18;91.84;102166.38;7384491;19;19918;-74
2022/06/04 01:25:46;;;;;;;;;;;;;;;13.16;91.88;102171.59;7384800;19;19918;-74
2022/06/04 01:28:19;;;;;;;;;;;;;;;13.15;91.57;102172.41;7387204;19;19922;-75
2022/06/04 01:30:50;;;;;;;;;;;;;;;13.15;91.84;102175.06;7385413;19;20268;-75
2022/06/04 01:33:21;;;;;;;;;;;;;;;13.13;91.72;102179.41;7385773;19;19918;-75
2022/06/04 01:35:55;;;;;;;;;;;;;;;13.13;91.92;102175.88;7384832;19;19918;-75
2022/06/04 01:38:27;;;;;;;;;;;;;;;13.15;91.87;102185.59;7384444;19;19917;-75
2022/06/04 01:41:03;;;;;;;;;;;;;;;13.02;92.56;102181.75;7382426;19;19927;-74
2022/06/04 01:43:38;;;;;;;;;;;;;;;13.11;92.25;102183.72;7382534;19;19915;-74
2022/06/04 01:46:12;;;;;;;;;;;;;;;13.04;92.57;102194.97;7384516;19;19914;-75
2022/06/04 01:48:44;;;;;;;;;;;;;;;13.00;92.52;102198.38;7385631;19;19910;-75
2022/06/04 01:51:18;;;;;;;;;;;;;;;13.03;92.07;102204.63;7383985;19;19915;-74
2022/06/04 01:53:50;;;;;;;;;;;;;;;12.93;91.72;102202.59;7381929;19;20196;-75
2022/06/04 01:56:22;;;;;;;;;;;;;;;13.04;90.90;102192.34;7382711;19;19930;-74
2022/06/04 01:58:57;;;;;;;;;;;;;;;13.08;90.12;102191.56;7385532;19;20390;-75
2022/06/04 02:01:30;;;;;;;;;;;;;;;13.06;90.10;102185.38;7385158;19;20351;-74
2022/06/04 02:04:03;;;;;;;;;;;;;;;13.01;90.44;102189.63;7383183;19;19923;-74
2022/06/04 02:06:35;;;;;;;;;;;;;;;12.95;91.15;102186.84;7381496;19;19939;-74
2022/06/04 02:09:11;;;;;;;;;;;;;;;13.00;91.07;102187.84;7384110;19;19939;-75
2022/06/04 02:11:43;;;;;;;;;;;;;;;13.01;90.56;102184.34;7381873;19;19919;-75
2022/06/04 02:14:15;;;;;;;;;;;;;;;13.02;89.96;102186.16;7383942;19;20304;-76
2022/06/04 02:16:48;;;;;;;;;;;;;;;12.99;89.02;102183.44;7384797;19;19923;-76
2022/06/04 02:19:18;;;;;;;;;;;;;;;13.01;88.00;102189.63;7385207;19;19944;-75
2022/06/04 02:21:47;;;;;;;;;;;;;;;12.98;88.10;102192.19;7384134;19;19958;-76
2022/06/04 02:24:17;;;;;;;;;;;;;;;12.93;88.24;102192.06;7380401;19;19915;-75
2022/06/04 02:26:49;;;;;;;;;;;;;;;12.91;87.82;102195.53;7385838;19;19987;-75
2022/06/04 02:29:22;;;;;;;;;;;;;;;12.86;87.51;102194.50;7382787;19;20612;-75
2022/06/04 02:31:53;;;;;;;;;;;;;;;12.88;87.56;102187.53;7384079;19;19933;-75
2022/06/04 02:34:26;;;;;;;;;;;;;;;12.87;87.07;102191.91;7382647;19;19922;-75
2022/06/04 02:36:59;;;;;;;;;;;;;;;12.86;86.58;102197.16;7382740;19;19914;-75
2022/06/04 02:39:34;;;;;;;;;;;;;;;12.80;85.84;102194.34;7384324;19;20454;-75
2022/06/04 02:42:06;;;;;;;;;;;;;;;12.70;86.66;102198.50;7384138;19;20297;-76
2022/06/04 02:44:44;;;;;;;;;;;;;;;12.71;86.81;102195.91;7381723;19;19929;-76
2022/06/04 02:47:16;;;;;;;;;;;;;;;12.65;87.59;102182.56;7380955;19;20287;-76
2022/06/04 02:49:50;;;;;;;;;;;;;;;12.66;87.46;102162.41;7383572;19;19927;-76
2022/06/04 02:52:21;;;;;;;;;;;;;;;12.65;87.54;102163.25;7380200;19;19926;-76
2022/06/04 02:54:53;;;;;;;;;;;;;;;12.63;88.25;102163.22;7382659;19;19927;-76
2022/06/04 02:57:23;;;;;;;;;;;;;;;12.61;88.39;102167.56;7381393;19;19933;-76
2022/06/04 02:59:55;;;;;;;;;;;;;;;12.58;89.12;102166.59;7382446;19;19947;-76
2022/06/04 03:02:26;;;;;;;;;;;;;;;12.56;90.36;102158.66;7381134;19;19948;-76
2022/06/04 03:04:56;;;;;;;;;;;;;;;12.54;90.29;102165.59;7379555;19;19998;-76
2022/06/04 03:07:27;;;;;;;;;;;;;;;12.52;90.42;102151.53;7381696;19;19942;-76
2022/06/04 03:09:59;;;;;;;;;;;;;;;12.47;91.26;102150.53;7383700;19;19919;-74
2022/06/04 03:12:29;;;;;;;;;;;;;;;12.46;90.84;102155.78;7383430;19;19918;-75
2022/06/04 03:15:02;;;;;;;;;;;;;;;12.47;90.95;102154.91;7383078;19;19952;-75
2022/06/04 03:17:31;;;;;;;;;;;;;;;12.46;91.43;102161.03;7381281;19;19919;-75
2022/06/04 03:20:01;;;;;;;;;;;;;;;12.32;92.02;102161.56;7381738;19;20439;-75
2022/06/04 03:22:30;;;;;;;;;;;;;;;12.24;92.13;102164.81;7382803;19;19926;-75
2022/06/04 03:25:00;;;;;;;;;;;;;;;12.30;92.55;102170.25;7380427;19;20372;-75
2022/06/04 03:27:29;;;;;;;;;;;;;;;12.29;92.39;102166.72;7380906;19;19922;-75
2022/06/04 03:30:02;;;;;;;;;;;;;;;12.30;93.02;102170.25;7381952;19;19922;-76
2022/06/04 03:32:31;;;;;;;;;;;;;;;12.33;92.55;102167.69;7382316;19;19918;-76
2022/06/04 03:35:01;;;;;;;;;;;;;;;12.26;92.86;102165.75;7379201;19;19932;-76
2022/06/04 03:37:30;;;;;;;;;;;;;;;12.26;92.81;102158.75;7380995;19;19931;-76
2022/06/04 03:40:00;;;;;;;;;;;;;;;12.27;93.26;102154.38;7382139;19;19918;-76
2022/06/04 03:42:30;;;;;;;;;;;;;;;12.24;92.79;102144.66;7380699;19;20457;-76
2022/06/04 03:45:03;;;;;;;;;;;;;;;12.29;92.78;102157.94;7380694;19;19919;-76
2022/06/04 03:47:36;;;;;;;;;;;;;;;12.28;92.73;102145.63;7382489;19;19961;-76
2022/06/04 03:50:06;;;;;;;;;;;;;;;12.31;92.77;102156.25;7391025;19;20034;-76
2022/06/04 03:52:36;;;;;;;;;;;;;;;12.27;92.65;102150.00;7385823;19;20309;-75
2022/06/04 03:55:06;;;;;;;;;;;;;;;12.28;92.53;102156.16;7389136;19;19907;-75
2022/06/04 03:57:45;;;;;;;;;;;;;;;12.25;92.50;102143.81;7389034;19;20483;-75
2022/06/04 04:00:19;;;;;;;;;;;;;;;12.25;92.69;102150.81;7390016;19;19923;-74
2022/06/04 04:02:50;;;;;;;;;;;;;;;12.19;92.91;102158.53;7389444;19;19922;-74
2022/06/04 04:05:21;;;;;;;;;;;;;;;12.18;93.35;102164.66;7388472;19;20291;-74
2022/06/04 04:07:51;;;;;;;;;;;;;;;12.17;93.65;102163.75;7390556;19;19947;-75
2022/06/04 04:10:20;;;;;;;;;;;;;;;12.10;94.37;102162.69;7389885;19;19919;-75
2022/06/04 04:12:50;;;;;;;;;;;;;;;12.19;94.42;102171.69;7389146;19;19914;-75
2022/06/04 04:15:23;;;;;;;;;;;;;;;12.16;93.50;102161.97;7386700;19;19932;-75
2022/06/04 04:17:53;;;;;;;;;;;;;;;12.20;93.11;102157.69;7390993;19;19911;-75
2022/06/04 04:20:24;;;;;;;;;;;;;;;12.12;93.87;102165.38;7389343;19;19934;-75
2022/06/04 04:22:54;;;;;;;;;;;;;;;12.17;93.93;102158.50;7390783;19;19923;-75
2022/06/04 04:25:28;;;;;;;;;;;;;;;12.18;93.38;102176.06;7387880;19;19918;-74
2022/06/04 04:27:58;;;;;;;;;;;;;;;12.16;92.84;102159.34;7389679;19;20322;-75
2022/06/04 04:30:31;;;;;;;;;;;;;;;12.22;93.02;102169.16;7389882;19;19907;-76
2022/06/04 04:33:01;;;;;;;;;;;;;;;12.30;92.82;102165.00;7384659;19;19919;-76
2022/06/04 04:35:32;;;;;;;;;;;;;;;12.23;93.37;102169.19;7387953;19;19940;-74
2022/06/04 04:38:02;;;;;;;;;;;;;;;12.29;93.93;102171.09;7386412;19;19918;-75
2022/06/04 04:40:32;;;;;;;;;;;;;;;12.35;94.20;102177.41;7387776;19;19931;-75
2022/06/04 04:43:02;;;;;;;;;;;;;;;12.36;95.17;102165.16;7386946;19;19915;-75
2022/06/04 04:45:34;;;;;;;;;;;;;;;12.39;95.10;102176.66;7387330;19;19933;-75
2022/06/04 04:48:03;;;;;;;;;;;;;;;12.45;95.27;102181.19;7385451;19;19915;-75
2022/06/04 04:50:34;;;;;;;;;;;;;;;12.47;95.35;102181.22;7385055;19;19925;-75
2022/06/04 04:53:05;;;;;;;;;;;;;;;12.57;95.14;102170.97;7383109;19;19955;-75
2022/06/04 04:55:36;;;;;;;;;;;;;;;12.61;94.04;102169.28;7384625;19;19914;-75
2022/06/04 04:58:06;;;;;;;;;;;;;;;12.67;93.63;102170.34;7387193;19;20264;-75
2022/06/04 05:00:38;;;;;;;;;;;;;;;12.83;92.63;102171.63;7385897;19;19939;-75
2022/06/04 05:03:08;;;;;;;;;;;;;;;12.96;91.19;102175.47;7387661;19;20306;-75
2022/06/04 05:05:37;;;;;;;;;;;;;;;13.03;91.34;102180.03;7384631;19;19915;-75
2022/06/04 05:08:07;;;;;;;;;;;;;;;13.10;91.21;102164.41;7385448;19;19918;-75
2022/06/04 05:10:36;;;;;;;;;;;;;;;13.13;90.40;102162.69;7384273;19;19918;-75
2022/06/04 05:13:06;;;;;;;;;;;;;;;13.05;90.34;102176.56;7388979;19;20679;-75
2022/06/04 05:15:38;;;;;;;;;;;;;;;13.04;90.82;102174.78;7386563;19;19938;-75
2022/06/04 05:18:08;;;;;;;;;;;;;;;13.12;90.47;102163.56;7387767;19;19918;-75
2022/06/04 05:20:37;;;;;;;;;;;;;;;13.30;90.05;102164.91;7384415;19;20349;-75
2022/06/04 05:23:07;;;;;;;;;;;;;;;13.51;88.51;102161.88;7383551;19;19990;-74
2022/06/04 05:25:37;;;;;;;;;;;;;;;13.82;86.59;102160.75;7384763;19;19942;-75
2022/06/04 05:28:07;;;;;;;;;;;;;;;14.03;84.50;102168.22;7387301;19;19914;-74
2022/06/04 05:30:39;;;;;;;;;;;;;;;14.40;83.38;102167.19;7385804;19;20342;-75
2022/06/04 05:33:09;;;;;;;;;;;;;;;14.39;81.63;102168.94;7386556;19;19925;-75
2022/06/04 05:35:40;;;;;;;;;;;;;;;14.36;82.01;102170.63;7386364;19;19914;-74
2022/06/04 05:38:09;;;;;;;;;;;;;;;14.20;81.82;102169.44;7386718;19;19919;-75
2022/06/04 05:40:39;;;;;;;;;;;;;;;14.17;80.92;102157.94;7385579;19;19915;-75
2022/06/04 05:43:09;;;;;;;;;;;;;;;14.16;81.11;102161.44;7384236;19;20245;-74
2022/06/04 05:45:41;;;;;;;;;;;;;;;14.13;82.04;102164.03;7383476;19;19922;-75
2022/06/04 05:48:11;;;;;;;;;;;;;;;14.25;81.96;102164.25;7385650;19;19990;-75
2022/06/04 05:50:40;;;;;;;;;;;;;;;14.27;81.57;102166.06;7384783;19;20019;-75
2022/06/04 05:53:10;;;;;;;;;;;;;;;14.42;81.21;102176.06;7384885;19;19918;-75
2022/06/04 05:55:39;;;;;;;;;;;;;;;14.50;80.96;102179.72;7385990;19;19915;-75
2022/06/04 05:58:09;;;;;;;;;;;;;;;14.51;81.71;102180.63;7384563;19;19915;-76
2022/06/04 06:00:41;;;;;;;;;;;;;;;14.55;81.34;102186.00;7384581;19;19994;-78
2022/06/04 06:03:11;;;;;;;;;;;;;;;14.62;79.70;102187.84;7382848;19;19958;-76
2022/06/04 06:05:43;;;;;;;;;;;;;;;14.39;78.58;102194.44;7382904;19;19919;-75
2022/06/04 06:08:13;;;;;;;;;;;;;;;14.30;79.98;102196.91;7383770;19;19919;-75
2022/06/04 06:10:49;;;;;;;;;;;;;;;14.15;80.28;102194.84;7381458;19;19910;-76
2022/06/04 06:13:18;;;;;;;;;;;;;;;14.14;79.59;102200.09;7382700;19;19945;-74
2022/06/04 06:15:50;;;;;;;;;;;;;;;13.96;79.62;102200.59;7383740;19;19914;-76
2022/06/04 06:18:20;;;;;;;;;;;;;;;14.07;79.83;102207.00;7383397;19;19947;-75
2022/06/04 06:20:49;;;;;;;;;;;;;;;14.06;80.19;102206.09;7384593;19;20333;-75
2022/06/04 06:23:23;;;;;;;;;;;;;;;14.14;80.32;102205.38;7384674;19;19982;-75
2022/06/04 06:25:53;;;;;;;;;;;;;;;14.10;79.91;102206.16;7384654;19;19923;-74
2022/06/04 06:28:22;;;;;;;;;;;;;;;14.08;80.15;102211.41;7384354;19;20379;-74
2022/06/04 06:30:59;;;;;;;;;;;;;;;14.02;81.19;102214.81;7385238;19;20248;-76
2022/06/04 06:33:29;;;;;;;;;;;;;;;14.18;80.67;102217.78;7384033;19;19935;-74
2022/06/04 06:35:59;;;;;;;;;;;;;;;14.22;79.67;102224.88;7384311;19;19919;-76
2022/06/04 06:38:29;;;;;;;;;;;;;;;14.24;79.79;102231.09;7385345;19;19922;-75
2022/06/04 06:41:00;;;;;;;;;;;;;;;14.28;79.20;102240.84;7385204;19;19922;-76
2022/06/04 06:43:34;;;;;;;;;;;;;;;14.33;79.26;102249.75;7384657;19;19955;-75
2022/06/04 06:46:08;;;;;;;;;;;;;;;14.28;79.80;102239.09;7385052;19;19919;-76
2022/06/04 06:48:38;;;;;;;;;;;;;;;14.33;79.33;102244.47;7384546;19;19914;-75
2022/06/04 06:51:08;;;;;;;;;;;;;;;14.28;80.10;102248.75;7384876;19;20432;-76
2022/06/04 06:53:38;;;;;;;;;;;;;;;14.29;79.06;102253.19;7383133;19;19936;-75
2022/06/04 06:56:11;;;;;;;;;;;;;;;14.46;79.65;102254.44;7384416;19;19911;-76
2022/06/04 06:58:41;;;;;;;;;;;;;;;14.58;79.01;102248.47;7384147;19;20153;-75
2022/06/04 07:01:14;;;;;;;;;;;;;;;14.57;78.06;102258.16;7384860;19;19922;-75
2022/06/04 07:03:45;;;;;;;;;;;;;;;14.65;78.32;102256.56;7384141;19;19950;-75
2022/06/04 07:06:15;;;;;;;;;;;;;;;14.62;78.32;102253.84;7385172;19;20339;-75
2022/06/04 07:08:45;;;;;;;;;;;;;;;14.82;77.99;102248.06;7381385;19;20353;-74
2022/06/04 07:11:14;;;;;;;;;;;;;;;14.95;77.83;102247.41;7382442;19;19926;-74
2022/06/04 07:13:44;;;;;;;;;;;;;;;15.00;77.13;102249.28;7382680;19;19918;-75
2022/06/04 07:16:16;;;;;;;;;;;;;;;14.87;77.03;102241.09;7383656;19;19936;-74
2022/06/04 07:18:46;;;;;;;;;;;;;;;14.96;77.16;102241.28;7382442;19;19919;-76
2022/06/04 07:21:16;;;;;;;;;;;;;;;15.10;76.57;102239.75;7385691;19;19951;-75
2022/06/04 07:23:46;;;;;;;;;;;;;;;15.25;76.83;102244.41;7392719;19;19923;-76
2022/06/04 07:26:15;;;;;;;;;;;;;;;15.60;75.44;102251.13;7389958;19;19929;-75
2022/06/04 07:28:45;;;;;;;;;;;;;;;15.80;74.31;102256.72;7391998;19;19926;-76
2022/06/04 07:31:18;;;;;;;;;;;;;;;15.96;73.61;102256.06;7393147;19;20141;-76
2022/06/04 07:33:49;;;;;;;;;;;;;;;15.74;72.61;102267.22;7391288;19;19958;-75
2022/06/04 07:36:21;;;;;;;;;;;;;;;15.82;72.58;102259.38;7390400;19;19915;-75
2022/06/04 07:38:51;;;;;;;;;;;;;;;15.74;72.71;102261.94;7391382;19;19918;-75
2022/06/04 07:41:22;;;;;;;;;;;;;;;15.75;72.91;102241.66;7389180;19;19927;-75
2022/06/04 07:43:52;;;;;;;;;;;;;;;15.82;73.66;102230.28;7392825;19;20349;-76
2022/06/04 07:46:26;;;;;;;;;;;;;;;15.81;72.51;102224.13;7387769;19;20340;-76
2022/06/04 07:48:56;;;;;;;;;;;;;;;15.93;71.69;102232.22;7389723;19;19919;-76
2022/06/04 07:51:27;;;;;;;;;;;;;;;15.88;71.64;102230.38;7391286;19;19919;-75
2022/06/04 07:53:56;;;;;;;;;;;;;;;15.88;71.52;102225.09;7390884;19;19918;-75
2022/06/04 07:56:26;;;;;;;;;;;;;;;16.01;71.39;102227.03;7391314;19;19926;-76
2022/06/04 07:58:56;;;;;;;;;;;;;;;15.92;71.61;102219.84;7388169;19;19923;-75
2022/06/04 08:01:28;;;;;;;;;;;;;;;16.02;71.95;102226.16;7391476;19;20055;-76
2022/06/04 08:03:58;;;;;;;;;;;;;;;16.05;71.76;102226.19;7389850;19;19986;-74
2022/06/04 08:06:29;;;;;;;;;;;;;;;15.98;71.43;102235.81;7387648;19;20982;-74
2022/06/04 08:08:59;;;;;;;;;;;;;;;16.11;71.26;102233.31;7387790;19;19994;-74
2022/06/04 08:11:35;;;;;;;;;;;;;;;16.03;72.07;102239.41;7387252;19;19919;-75
2022/06/04 08:14:10;;;;;;;;;;;;;;;16.25;72.07;102253.81;7386218;19;19929;-75
2022/06/04 08:16:43;;;;;;;;;;;;;;;16.22;71.04;102242.28;7387694;19;19927;-75
2022/06/04 08:19:14;;;;;;;;;;;;;;;16.27;70.69;102252.06;7389194;19;19915;-76
2022/06/04 08:21:45;;;;;;;;;;;;;;;16.15;71.53;102253.66;7388697;19;19914;-75
2022/06/04 08:24:16;;;;;;;;;;;;;;;16.06;70.79;102253.56;7387875;19;19957;-76
2022/06/04 08:26:47;;;;;;;;;;;;;;;16.10;70.81;102245.66;7387619;19;19932;-74
2022/06/04 08:29:18;;;;;;;;;;;;;;;16.12;70.53;102243.94;7383960;19;20020;-77
2022/06/04 08:31:50;;;;;;;;;;;;;;;15.97;71.76;102256.97;7386869;19;19923;-74
2022/06/04 08:34:20;;;;;;;;;;;;;;;15.93;71.53;102265.72;7388343;19;20240;-75
2022/06/04 08:36:50;;;;;;;;;;;;;;;15.87;72.33;102266.53;7387111;19;19951;-74
2022/06/04 08:39:20;;;;;;;;;;;;;;;15.95;73.32;102264.88;7386839;19;19998;-73
2022/06/04 08:41:58;;;;;;;;;;;;;;;15.99;72.56;102258.75;7386898;19;19940;-75
2022/06/04 08:44:30;;;;;;;;;;;;;;;16.13;74.06;102266.00;7386141;19;19919;-75
2022/06/04 08:47:06;;;;;;;;;;;;;;;15.99;75.70;102271.09;7387192;19;19919;-76
2022/06/04 08:49:39;;;;;;;;;;;;;;;16.01;76.00;102261.44;7387324;19;20009;-76
2022/06/04 08:52:13;;;;;;;;;;;;;;;16.21;75.29;102256.41;7388269;19;19918;-75
2022/06/04 08:57:40;;;;;;;;;;;;;;;16.27;74.83;102260.00;7388148;19;19921;-75
2022/06/04 09:00:12;;;;;;;;;;;;;;;16.34;75.43;102258.31;7387669;19;19923;-74
2022/06/04 09:02:59;;;;;;;;;;;;;;;16.38;74.71;102259.25;7388211;19;19944;-75
2022/06/04 09:05:33;;;;;;;;;;;;;;;16.39;75.05;102267.22;7386583;19;20443;-74
2022/06/04 09:08:05;;;;;;;;;;;;;;;16.62;74.59;102262.19;7384372;19;19922;-75
2022/06/04 09:10:39;;;;;;;;;;;;;;;16.68;74.81;102262.25;7386279;19;19926;-74
2022/06/04 09:13:14;;;;;;;;;;;;;;;16.65;74.11;102265.75;7387494;19;19922;-75
2022/06/04 09:15:49;;;;;;;;;;;;;;;16.79;73.69;102265.91;7386014;19;19933;-75
2022/06/04 09:18:24;;;;;;;;;;;;;;;17.00;73.19;102273.19;7385993;19;19940;-74
2022/06/04 09:20:56;;;;;;;;;;;;;;;16.96;74.31;102269.59;7387398;19;20278;-75
2022/06/04 09:23:29;;;;;;;;;;;;;;;17.11;74.32;102274.16;7386640;19;19919;-75
2022/06/04 09:26:01;;;;;;;;;;;;;;;17.02;74.98;102268.78;7383773;19;20229;-77
2022/06/04 09:28:37;;;;;;;;;;;;;;;17.04;75.74;102269.69;7383656;19;20514;-76
2022/06/04 09:31:16;;;;;;;;;;;;;;;17.09;74.18;102264.44;7386027;19;19947;-76
2022/06/04 09:33:52;;;;;;;;;;;;;;;17.14;73.82;102268.00;7386037;19;19926;-76
2022/06/04 09:36:25;;;;;;;;;;;;;;;17.16;73.53;102263.59;7385266;19;19951;-74
2022/06/04 09:38:56;;;;;;;;;;;;;;;17.37;72.66;102254.94;7387028;19;19925;-75
2022/06/04 09:41:27;;;;;;;;;;;;;;;17.17;71.68;102268.91;7385352;19;19931;-76
2022/06/04 09:44:01;;;;;;;;;;;;;;;17.22;71.72;102272.50;7384530;19;19928;-75
2022/06/04 09:46:31;;;;;;;;;;;;;;;17.13;71.90;102275.06;7385443;19;19918;-75
2022/06/04 09:49:07;;;;;;;;;;;;;;;17.27;72.43;102278.72;7387883;19;19933;-76
2022/06/04 09:51:42;;;;;;;;;;;;;;;17.44;72.17;102273.56;7384900;19;19915;-74
2022/06/04 09:54:22;;;;;;;;;;;;;;;17.21;71.65;102270.72;7383497;19;19943;-74
2022/06/04 09:56:54;;;;;;;;;;;;;;;17.25;70.84;102264.56;7386597;19;19918;-74
2022/06/04 09:59:24;;;;;;;;;;;;;;;17.33;70.14;102265.53;7386792;19;19919;-74
2022/06/04 10:01:55;;;;;;;;;;;;;;;17.28;70.87;102267.25;7384989;19;19922;-74
2022/06/04 10:04:38;;;;;;;;;;;;;;;17.30;70.95;102265.50;7384369;19;19918;-75
2022/06/04 10:07:08;;;;;;;;;;;;;;;17.35;71.37;102257.59;7385715;19;19914;-76
2022/06/04 10:13:42;;;;;;;;;;;;;;;17.51;70.74;102258.59;7384872;19;19926;-75
2022/06/04 10:15:16;;;;;;;;;;;;;;;17.53;69.61;102260.38;7384842;19;19918;-74
2022/06/04 10:17:46;;;;;;;;;;;;;;;17.54;69.76;102264.81;7384415;19;19926;-75
2022/06/04 10:20:26;;;;;;;;;;;;;;;17.42;70.17;102262.06;7383796;19;19927;-75
2022/06/04 10:22:56;;;;;;;;;;;;;;;17.39;70.26;102274.41;7383391;19;20361;-75
2022/06/04 10:25:31;;;;;;;;;;;;;;;17.40;69.95;102257.63;7383551;19;19922;-77
2022/06/04 10:28:12;;;;;;;;;;;;;;;17.25;70.63;102258.38;7383390;19;19918;-75
2022/06/04 10:30:48;;;;;;;;;;;;;;;17.25;70.69;102259.28;7384553;19;19915;-76
2022/06/04 10:33:22;;;;;;;;;;;;;;;17.32;70.46;102252.25;7383659;19;19926;-75
2022/06/04 10:36:06;;;;;;;;;;;;;;;17.22;70.81;102261.00;7383420;19;19930;-76
2022/06/04 10:38:44;;;;;;;;;;;;;;;17.27;70.65;102268.13;7384074;19;19922;-76
2022/06/04 10:41:16;;;;;;;;;;;;;;;17.28;70.91;102259.28;7383199;19;19926;-74
2022/06/04 10:44:08;;;;;;;;;;;;;;;17.32;71.17;102263.75;7383212;19;19954;-76
2022/06/04 10:46:43;;;;;;;;;;;;;;;17.37;70.58;102255.84;7382872;19;19917;-75
2022/06/04 10:49:21;;;;;;;;;;;;;;;17.23;71.44;102262.78;7381580;19;19956;-75
2022/06/04 10:51:57;;;;;;;;;;;;;;;17.31;72.81;102261.97;7383270;19;19944;-74
2022/06/04 10:54:30;;;;;;;;;;;;;;;17.35;73.31;102268.19;7378906;19;20345;-75
2022/06/04 10:57:02;;;;;;;;;;;;;;;17.33;74.88;102268.19;7380893;19;19948;-75
2022/06/04 10:59:35;;;;;;;;;;;;;;;17.38;75.70;102269.97;7383300;19;19949;-75
2022/06/04 11:02:11;;;;;;;;;;;;;;;17.44;75.59;102265.59;7382394;19;19920;-76
2022/06/04 11:04:44;;;;;;;;;;;;;;;17.30;78.21;102275.22;7383180;19;20267;-74
2022/06/04 11:07:35;;;;;;;;;;;;;;;17.38;76.45;102267.31;7380704;19;19911;-75
2022/06/04 11:10:06;;;;;;;;;;;;;;;17.39;76.48;102274.41;7383659;19;19918;-75
2022/06/04 11:12:40;;;;;;;;;;;;;;;17.42;76.90;102263.81;7383643;19;19923;-74
2022/06/04 11:15:15;;;;;;;;;;;;;;;17.38;77.38;102272.63;7385405;19;19910;-73
2022/06/04 11:17:49;;;;;;;;;;;;;;;17.36;74.47;102269.97;7381628;19;19923;-73
2022/06/04 11:20:20;;;;;;;;;;;;;;;17.43;74.78;102273.56;7382904;19;19919;-74
2022/06/04 11:22:58;;;;;;;;;;;;;;;17.54;74.23;102277.19;7382582;19;19923;-76
2022/06/04 11:25:32;;;;;;;;;;;;;;;17.37;73.63;102269.09;7383618;19;19914;-78
2022/06/04 11:28:03;;;;;;;;;;;;;;;17.45;73.21;102277.09;7382234;19;19919;-73
2022/06/04 11:30:39;;;;;;;;;;;;;;;17.44;72.94;102268.25;7383940;19;19948;-75
2022/06/04 11:33:16;;;;;;;;;;;;;;;17.60;72.46;102263.97;7383099;19;19922;-75
2022/06/04 11:35:48;;;;;;;;;;;;;;;17.69;72.67;102266.69;7382782;19;19930;-75
2022/06/04 11:38:35;;;;;;;;;;;;;;;17.94;71.98;102265.06;7384067;19;19926;-75
2022/06/04 11:41:13;;;;;;;;;;;;;;;18.10;70.69;102271.34;7383687;19;20964;-76
2022/06/04 11:43:50;;;;;;;;;;;;;;;18.24;70.15;102275.84;7383203;19;20045;-75
2022/06/04 11:46:25;;;;;;;;;;;;;;;18.21;69.88;102280.25;7383671;19;19918;-75
2022/06/04 11:49:04;;;;;;;;;;;;;;;18.27;69.25;102267.00;7380839;19;20225;-76
2022/06/04 11:51:48;;;;;;;;;;;;;;;18.44;68.59;102267.94;7384317;19;19919;-74
2022/06/04 11:54:24;;;;;;;;;;;;;;;18.45;69.59;102260.88;7379263;19;19923;-75
2022/06/04 11:57:00;;;;;;;;;;;;;;;18.46;68.80;102259.97;7381816;19;19923;-76
2022/06/04 11:59:39;;;;;;;;;;;;;;;18.48;68.31;102263.53;7381129;19;19933;-75
2022/06/04 12:02:15;;;;;;;;;;;;;;;18.40;68.02;102260.84;7382105;19;19963;-75
2022/06/04 12:04:51;;;;;;;;;;;;;;;18.53;66.76;102267.97;7382527;19;19921;-76
2022/06/04 12:07:24;;;;;;;;;;;;;;;18.79;67.19;102253.88;7381658;19;19907;-74
2022/06/04 12:10:02;;;;;;;;;;;;;;;18.74;66.92;102255.63;7383942;19;19911;-74
2022/06/04 12:12:40;;;;;;;;;;;;;;;19.00;66.11;102251.25;7387853;19;19986;-75
2022/06/04 12:15:23;;;;;;;;;;;;;;;19.36;66.52;102252.13;7387114;19;20584;-75
2022/06/04 12:17:55;;;;;;;;;;;;;;;19.41;64.93;102253.03;7389864;19;20014;-74
2022/06/04 12:26:20;;;;;;;;;;;;;;;20.75;60.34;102236.59;7390014;19;19919;-74
2022/06/04 12:28:53;;;;;;;;;;;;;;;21.02;59.24;102241.69;7386855;19;19943;-74
2022/06/04 12:31:34;;;;;;;;;;;;;;;21.50;59.37;102239.53;7390828;19;19946;-74
2022/06/04 12:34:05;;;;;;;;;;;;;;;21.79;58.21;102240.13;7389842;19;19919;-75
2022/06/04 12:36:37;;;;;;;;;;;;;;;21.70;56.93;102232.22;7386473;19;19907;-74
2022/06/04 12:39:08;;;;;;;;;;;;;;;21.65;57.21;102236.72;7388869;19;19921;-73
2022/06/04 12:41:43;;;;;;;;;;;;;;;21.74;56.62;102231.28;7388615;19;19926;-74
2022/06/04 12:44:26;;;;;;;;;;;;;;;21.69;56.69;102237.56;7389629;19;19930;-74
2022/06/04 12:46:58;;;;;;;;;;;;;;;21.51;56.46;102234.19;7389060;19;19923;-74
2022/06/04 12:49:40;;;;;;;;;;;;;;;21.78;56.57;102235.69;7387684;19;19939;-74
2022/06/04 12:52:31;;;;;;;;;;;;;;;21.80;56.28;102230.31;7387225;19;19963;-74
2022/06/04 12:55:04;;;;;;;;;;;;;;;21.76;55.79;102223.25;7388645;19;19961;-74
2022/06/04 12:57:49;;;;;;;;;;;;;;;21.58;55.77;102224.31;7386732;19;19919;-74
2022/06/04 13:00:35;;;;;;;;;;;;;;;21.85;55.68;102217.78;7386206;19;19926;-73
2022/06/04 13:03:21;;;;;;;;;;;;;;;22.16;55.74;102223.66;7387419;19;19931;-75
2022/06/04 13:05:59;;;;;;;;;;;;;;;22.26;55.06;102211.06;7387721;19;19921;-73
2022/06/04 13:08:34;;;;;;;;;;;;;;;22.30;53.97;102216.34;7387031;19;19918;-74
2022/06/04 13:11:08;;;;;;;;;;;;;;;22.46;53.95;102217.91;7385816;19;19998;-73
2022/06/04 13:13:44;;;;;;;;;;;;;;;22.18;53.62;102219.19;7386142;19;19938;-74
2022/06/04 13:16:21;;;;;;;;;;;;;;;22.07;54.96;102208.63;7388695;19;19936;-73
2022/06/04 13:18:57;;;;;;;;;;;;;;;22.18;53.70;102205.81;7385198;19;19918;-73
2022/06/04 13:21:33;;;;;;;;;;;;;;;22.35;53.72;102203.81;7385818;19;20082;-74